Time;durP1;ratioP1;P1;durP2;ratioP2;P2;SDS_P1;SDS_P2;PMS_P1;PMS_P2;Temp;Humidity;BMP_temperature;BMP_pressure;BME280_temperature;BME280_humidity;BME280_pressure;Samples;Min_cycle;Max_cycle;Signal;HPM_P1;HPM_P2
2022/01/22 00:01:37;;;;;;;7.80;2.30;;;;;;;2.52;100.00;103025.66;5041591;28;20061;-49
2022/01/22 00:04:03;;;;;;;3.35;2.15;;;;;;;2.46;100.00;103021.56;5038722;28;20072;-53
2022/01/22 00:06:28;;;;;;;2.45;2.10;;;;;;;2.62;100.00;103022.47;5037009;28;20170;-50
2022/01/22 00:08:54;;;;;;;1.98;1.67;;;;;;;2.67;100.00;103019.63;5039075;28;20033;-52
2022/01/22 00:11:19;;;;;;;2.53;2.03;;;;;;;2.56;100.00;103022.81;5033504;28;20032;-52
2022/01/22 00:16:29;;;;;;;2.58;1.77;;;;;;;2.28;100.00;103020.69;5034307;28;20028;-54
2022/01/22 00:18:54;;;;;;;3.67;2.40;;;;;;;2.27;100.00;103018.13;5033095;28;20033;-50
2022/01/22 00:21:20;;;;;;;5.57;2.08;;;;;;;2.29;100.00;103017.13;5037183;28;20031;-55
2022/01/22 00:23:54;;;;;;;1.73;1.58;;;;;;;2.43;100.00;103018.22;5043786;28;20057;-54
2022/01/22 00:26:20;;;;;;;2.72;1.00;;;;;;;2.51;100.00;103019.56;5039206;28;20124;-52
2022/01/22 00:28:45;;;;;;;2.50;2.17;;;;;;;2.49;100.00;103015.31;5037302;28;20512;-49
2022/01/22 00:31:11;;;;;;;2.95;1.48;;;;;;;2.38;100.00;103008.84;5034400;28;20120;-51
2022/01/22 00:33:36;;;;;;;2.47;1.15;;;;;;;2.30;100.00;103016.25;5040600;28;20061;-51
2022/01/22 00:36:02;;;;;;;2.88;1.73;;;;;;;2.33;100.00;103008.22;5034952;28;20111;-54
2022/01/22 00:38:27;;;;;;;1.70;1.40;;;;;;;2.32;100.00;103009.16;5036175;28;20040;-50
2022/01/22 00:40:53;;;;;;;3.28;1.63;;;;;;;2.33;100.00;103008.22;5035279;28;20078;-51
2022/01/22 00:43:20;;;;;;;1.83;1.65;;;;;;;2.36;100.00;103008.06;5039842;28;20053;-51
2022/01/22 00:45:46;;;;;;;2.78;1.63;;;;;;;2.32;100.00;103003.06;5037902;28;20064;-54
2022/01/22 00:48:11;;;;;;;1.75;1.10;;;;;;;2.36;100.00;103000.22;5038317;28;20033;-53
2022/01/22 00:50:37;;;;;;;1.23;1.08;;;;;;;2.33;100.00;103003.00;5039362;28;20025;-50
2022/01/22 00:53:02;;;;;;;2.67;1.27;;;;;;;2.43;100.00;102997.28;5037852;28;20082;-52
2022/01/22 00:55:28;;;;;;;2.63;1.60;;;;;;;2.42;100.00;102987.75;5035503;28;20071;-50
2022/01/22 00:57:53;;;;;;;1.90;1.75;;;;;;;2.39;100.00;102988.75;5039022;28;20033;-50
2022/01/22 01:00:19;;;;;;;1.10;1.00;;;;;;;2.35;100.00;102993.28;5038959;28;20029;-50
2022/01/22 01:02:46;;;;;;;4.63;1.35;;;;;;;2.27;100.00;102991.97;5040064;28;20063;-51
2022/01/22 01:05:12;;;;;;;2.13;1.65;;;;;;;2.28;100.00;102988.44;5034331;28;20075;-52
2022/01/22 01:07:38;;;;;;;1.67;1.23;;;;;;;2.30;100.00;102987.44;5037272;28;20086;-50
2022/01/22 01:10:06;;;;;;;1.52;1.15;;;;;;;2.19;100.00;102976.63;5040975;28;20048;-54
2022/01/22 01:12:31;;;;;;;3.33;1.48;;;;;;;2.18;100.00;102994.09;5038556;28;20468;-53
2022/01/22 01:32:12;;;;;;;1.05;0.95;;;;;;;2.44;100.00;102980.66;5041751;28;20035;-53
2022/01/22 01:34:10;;;;;;;1.10;1.08;;;;;;;2.39;100.00;102988.75;5034424;28;20695;-48
2022/01/22 01:36:37;;;;;;;3.58;0.90;;;;;;;2.42;100.00;102992.97;5040909;28;20028;-51
2022/01/22 01:39:06;;;;;;;1.13;1.02;;;;;;;2.37;100.00;102969.63;5044384;28;20033;-51
2022/01/22 01:44:16;;;;;;;1.05;1.00;;;;;;;2.54;100.00;102979.28;5036691;28;20039;-50
2022/01/22 01:46:47;;;;;;;3.70;1.15;;;;;;;2.56;100.00;102970.41;5045182;28;20021;-52
2022/01/22 01:49:13;;;;;;;0.70;0.70;;;;;;;2.52;100.00;102970.66;5030855;28;20060;-50
2022/01/22 01:51:39;;;;;;;5.85;1.70;;;;;;;2.54;100.00;102966.19;5045359;28;20450;-52
2022/01/22 01:59:17;;;;;;;0.45;0.45;;;;;;;2.44;100.00;102976.25;5032667;28;20557;-50
2022/01/22 02:01:43;;;;;;;1.38;1.00;;;;;;;2.53;100.00;102964.47;5033172;28;20021;-49
2022/01/22 02:04:11;;;;;;;1.92;1.27;;;;;;;2.56;100.00;102961.72;5039786;28;20025;-51
2022/01/22 02:06:37;;;;;;;2.00;1.13;;;;;;;2.45;100.00;102956.16;5035723;28;20029;-49
2022/01/22 02:09:06;;;;;;;1.45;1.35;;;;;;;2.39;100.00;102958.16;5043349;28;20497;-50
2022/01/22 02:11:32;;;;;;;3.35;1.20;;;;;;;2.27;100.00;102955.31;5040541;28;20025;-54
2022/01/22 02:24:56;;;;;;;3.33;1.08;;;;;;;2.21;100.00;102948.59;5043078;28;20543;-53
2022/01/22 02:27:21;;;;;;;1.23;1.20;;;;;;;2.30;100.00;102953.41;5033059;28;20037;-50
2022/01/22 02:29:47;;;;;;;0.75;0.75;;;;;;;2.31;100.00;102957.69;5037560;28;20036;-54
2022/01/22 02:35:12;;;;;;;1.15;1.02;;;;;;;2.22;100.00;102954.69;5043487;28;20033;-55
2022/01/22 02:37:43;;;;;;;1.40;1.10;;;;;;;2.34;100.00;102954.09;5044385;28;20043;-55
2022/01/22 02:40:14;;;;;;;0.85;0.85;;;;;;;2.42;100.00;102962.41;5048025;28;20083;-52
2022/01/22 02:42:39;;;;;;;2.88;1.30;;;;;;;2.36;100.00;102954.84;5037962;28;20509;-55
2022/01/22 02:45:09;;;;;;;1.02;1.00;;;;;;;2.33;100.00;102949.78;5046509;28;20032;-50
2022/01/22 02:47:35;;;;;;;1.65;1.48;;;;;;;2.33;100.00;102952.41;5036016;28;20029;-48
2022/01/22 02:50:01;;;;;;;3.50;1.98;;;;;;;2.29;100.00;102943.00;5040337;28;20048;-51
2022/01/22 02:52:26;;;;;;;1.30;1.20;;;;;;;2.26;100.00;102944.00;5048415;28;20147;-53
2022/01/22 02:54:53;;;;;;;1.38;1.13;;;;;;;2.27;100.00;102934.34;5038898;28;20495;-55
2022/01/22 02:57:19;;;;;;;1.42;1.08;;;;;;;2.30;100.00;102942.94;5043579;28;20448;-51
2022/01/22 02:59:44;;;;;;;1.65;1.55;;;;;;;2.33;100.00;102934.06;5023730;28;20029;-53
2022/01/22 03:02:13;;;;;;;0.93;0.93;;;;;;;2.37;100.00;102930.34;5036171;28;20507;-54
2022/01/22 03:04:40;;;;;;;1.55;1.45;;;;;;;2.37;100.00;102925.13;5043965;28;20064;-54
2022/01/22 03:07:06;;;;;;;1.48;1.38;;;;;;;2.40;100.00;102928.44;5038110;28;20389;-51
2022/01/22 03:09:39;;;;;;;1.65;1.45;;;;;;;2.30;100.00;102932.47;5046436;28;20462;-54
2022/01/22 03:27:49;;;;;;;1.58;0.65;;;;;;;2.50;100.00;102909.63;5037554;28;20051;-53
2022/01/22 03:30:15;;;;;;;1.30;1.20;;;;;;;2.46;100.00;102915.97;5046166;28;20033;-53
2022/01/22 03:32:44;;;;;;;4.25;1.48;;;;;;;2.50;100.00;102910.47;5046616;28;20041;-51
2022/01/22 03:37:37;;;;;;;1.10;1.00;;;;;;;2.49;100.00;102921.88;5045980;28;20254;-51
2022/01/22 03:40:04;;;;;;;1.27;1.02;;;;;;;2.48;100.00;102916.72;5045852;28;20119;-53
2022/01/22 03:42:30;;;;;;;0.75;0.75;;;;;;;2.42;100.00;102930.97;5040404;28;20036;-50
2022/01/22 03:44:55;;;;;;;2.25;1.13;;;;;;;2.48;100.00;102927.19;5039478;28;20045;-51
2022/01/22 03:47:20;;;;;;;3.22;0.75;;;;;;;2.53;100.00;102922.56;5040503;28;20025;-53
2022/01/22 03:49:46;;;;;;;5.78;2.22;;;;;;;2.57;100.00;102922.34;5038588;28;20104;-51
2022/01/22 03:52:12;;;;;;;0.88;0.70;;;;;;;2.61;100.00;102915.19;5045403;28;20406;-50
2022/01/22 03:54:37;;;;;;;3.80;1.05;;;;;;;2.60;100.00;102916.94;5037368;28;20064;-54
2022/01/22 03:57:03;;;;;;;2.72;1.50;;;;;;;2.61;100.00;102917.81;5043765;28;20048;-52
2022/01/22 03:59:30;;;;;;;3.95;1.95;;;;;;;2.60;100.00;102908.22;5046291;28;20061;-53
2022/01/22 04:04:38;;;;;;;0.75;0.68;;;;;;;2.68;100.00;102908.66;5044169;28;20454;-52
2022/01/22 04:09:32;;;;;;;1.15;1.00;;;;;;;2.78;100.00;102912.50;5046725;28;20460;-49
2022/01/22 04:11:59;;;;;;;0.93;0.93;;;;;;;2.79;100.00;102916.00;5038797;28;20379;-50
2022/01/22 04:14:29;;;;;;;6.68;1.95;;;;;;;2.80;100.00;102921.13;5044813;28;20052;-53
2022/01/22 04:24:56;;;;;;;2.08;0.68;;;;;;;2.82;100.00;102915.84;5037458;28;20247;-51
2022/01/22 04:27:27;;;;;;;1.48;1.05;;;;;;;2.85;100.00;102928.75;5046289;28;20439;-51
2022/01/22 04:29:57;;;;;;;2.40;0.98;;;;;;;2.84;100.00;102929.69;5039729;28;20541;-52
2022/01/22 04:32:22;;;;;;;2.60;0.93;;;;;;;2.81;100.00;102928.09;5039688;28;20033;-52
2022/01/22 04:34:48;;;;;;;1.33;0.90;;;;;;;2.89;100.00;102929.44;5040651;28;20387;-52
2022/01/22 04:37:14;;;;;;;3.80;1.00;;;;;;;2.94;100.00;102937.91;5036317;28;20184;-53
2022/01/22 04:39:39;;;;;;;1.45;0.70;;;;;;;2.94;100.00;102946.59;5042142;28;20021;-53
2022/01/22 04:42:05;;;;;;;1.13;0.88;;;;;;;2.90;100.00;102947.72;5044983;28;20035;-54
2022/01/22 04:44:36;;;;;;;3.20;1.20;;;;;;;2.88;100.00;102940.84;5045655;28;20029;-51
2022/01/22 04:55:01;;;;;;;1.60;0.73;;;;;;;2.97;100.00;102948.22;5039770;28;20047;-54
2022/01/22 04:57:32;;;;;;;1.25;1.10;;;;;;;2.97;100.00;102956.94;5041298;28;20102;-52
2022/01/22 04:59:58;;;;;;;2.22;1.30;;;;;;;2.95;100.00;102950.09;5037936;28;20033;-54
2022/01/22 05:02:24;;;;;;;5.65;1.77;;;;;;;2.97;100.00;102951.72;5038974;28;20113;-53
2022/01/22 05:04:49;;;;;;;0.80;0.80;;;;;;;2.99;100.00;102951.59;5036050;28;20024;-52
2022/01/22 05:07:15;;;;;;;4.55;1.45;;;;;;;3.01;100.00;102942.75;5036896;28;20053;-54
2022/01/22 05:09:41;;;;;;;4.72;1.75;;;;;;;3.01;100.00;102940.13;5024549;28;20648;-55
2022/01/22 05:12:07;;;;;;;0.65;0.65;;;;;;;3.00;100.00;102943.69;5037880;28;20375;-53
2022/01/22 05:14:33;;;;;;;1.63;1.40;;;;;;;2.98;100.00;102961.25;5038473;28;20029;-51
2022/01/22 05:17:01;;;;;;;2.00;1.25;;;;;;;2.98;100.00;102952.56;5025089;28;20482;-51
2022/01/22 05:19:34;;;;;;;0.80;0.77;;;;;;;2.99;100.00;102955.06;5038837;28;20045;-51
2022/01/22 05:22:10;;;;;;;1.85;0.95;;;;;;;2.99;100.00;102956.84;5040212;28;20041;-54
2022/01/22 05:24:40;;;;;;;1.55;0.90;;;;;;;2.95;100.00;102963.19;5034833;28;20044;-53
2022/01/22 05:37:24;;;;;;;0.90;0.70;;;;;;;2.96;100.00;102975.38;5038954;28;20052;-53
2022/01/22 05:39:50;;;;;;;3.47;1.15;;;;;;;2.92;100.00;102986.91;5042030;28;20445;-53
2022/01/22 05:42:15;;;;;;;3.00;1.33;;;;;;;2.96;100.00;102983.22;5037052;28;20025;-49
2022/01/22 05:44:41;;;;;;;2.38;1.13;;;;;;;2.98;100.00;102986.63;5036947;28;20478;-54
2022/01/22 05:47:06;;;;;;;11.82;2.38;;;;;;;3.00;100.00;102985.63;5035934;28;20392;-50
2022/01/22 05:49:37;;;;;;;1.75;0.98;;;;;;;2.99;100.00;102977.81;5038880;28;20090;-54
2022/01/22 05:52:05;;;;;;;3.40;1.23;;;;;;;2.96;100.00;102972.75;5039091;28;20033;-53
2022/01/22 05:54:57;;;;;;;3.38;1.85;;;;;;;2.98;100.00;102986.63;5036437;28;20051;-51
2022/01/22 06:00:07;;;;;;;6.03;1.92;;;;;;;3.00;100.00;102984.78;5034828;28;20063;-53
2022/01/22 06:02:33;;;;;;;1.95;1.42;;;;;;;3.05;100.00;102985.38;5036554;28;20022;-52
2022/01/22 06:04:58;;;;;;;2.33;1.63;;;;;;;3.12;100.00;102970.16;5037306;28;20116;-52
2022/01/22 06:07:23;;;;;;;1.65;1.17;;;;;;;3.12;100.00;102973.63;5040547;28;20024;-54
2022/01/22 06:10:14;;;;;;;2.47;1.40;;;;;;;3.12;100.00;102984.09;5038753;28;20028;-54
2022/01/22 06:15:10;;;;;;;3.10;1.48;;;;;;;3.04;100.00;102983.66;5039977;28;20119;-53
2022/01/22 06:17:36;;;;;;;1.67;0.98;;;;;;;3.00;100.00;102985.63;5042030;28;20491;-53
2022/01/22 06:20:02;;;;;;;5.20;2.42;;;;;;;2.97;100.00;102977.03;5040983;28;20118;-54
2022/01/22 06:22:28;;;;;;;2.50;1.52;;;;;;;3.00;100.00;102976.91;5039941;28;20033;-55
2022/01/22 06:24:53;;;;;;;1.58;1.08;;;;;;;3.02;100.00;102975.03;5039605;28;20035;-52
2022/01/22 06:27:19;;;;;;;5.55;2.20;;;;;;;2.99;100.00;102980.44;5043133;28;20450;-53
2022/01/22 06:29:44;;;;;;;2.47;1.80;;;;;;;2.95;100.00;102981.53;5039829;28;20039;-51
2022/01/22 06:32:09;;;;;;;2.70;1.58;;;;;;;2.93;100.00;102975.53;5043123;28;20068;-52
2022/01/22 06:34:35;;;;;;;4.97;1.15;;;;;;;2.88;100.00;102977.53;5038956;28;20026;-50
2022/01/22 06:37:00;;;;;;;3.60;1.48;;;;;;;2.92;100.00;102981.69;5041078;28;20031;-54
2022/01/22 06:39:26;;;;;;;4.25;1.58;;;;;;;2.91;100.00;102985.25;5040925;28;20108;-53
2022/01/22 06:41:53;;;;;;;4.03;1.40;;;;;;;2.91;100.00;102995.72;5044042;28;20385;-52
2022/01/22 06:44:21;;;;;;;2.90;1.48;;;;;;;2.90;100.00;102994.03;5035559;28;20120;-51
2022/01/22 06:46:49;;;;;;;2.00;1.80;;;;;;;2.93;100.00;102999.97;5037417;28;20045;-51
2022/01/22 06:49:15;;;;;;;5.43;3.17;;;;;;;2.89;100.00;102997.56;5041889;28;20044;-51
2022/01/22 06:51:41;;;;;;;3.95;1.80;;;;;;;2.83;100.00;102994.34;5047572;28;20482;-52
2022/01/22 06:54:10;;;;;;;3.55;1.23;;;;;;;2.85;100.00;102996.91;5041710;28;20048;-52
2022/01/22 06:56:35;;;;;;;1.23;1.05;;;;;;;2.91;100.00;103004.44;5047415;28;20029;-53
2022/01/22 06:59:02;;;;;;;3.42;1.38;;;;;;;2.92;100.00;103000.91;5028041;28;20032;-48
2022/01/22 07:01:28;;;;;;;7.72;1.80;;;;;;;2.89;100.00;102997.56;5045121;28;20482;-51
2022/01/22 07:03:55;;;;;;;2.38;1.77;;;;;;;3.02;100.00;103001.25;5042435;28;20024;-55
2022/01/22 07:06:21;;;;;;;2.95;1.27;;;;;;;3.08;100.00;102994.84;5044598;28;20032;-53
2022/01/22 07:08:47;;;;;;;2.55;1.35;;;;;;;3.08;100.00;102995.69;5043378;28;20988;-52
2022/01/22 07:11:12;;;;;;;2.63;1.65;;;;;;;3.08;100.00;102992.25;5045422;28;20063;-53
2022/01/22 07:13:38;;;;;;;2.85;1.92;;;;;;;3.11;100.00;102990.28;5043628;28;20037;-50
2022/01/22 07:16:04;;;;;;;4.70;3.30;;;;;;;3.08;100.00;103006.19;5038503;28;20037;-54
2022/01/22 07:18:30;;;;;;;3.55;2.00;;;;;;;3.09;100.00;103010.50;5043560;28;20025;-53
2022/01/22 07:20:56;;;;;;;5.25;1.58;;;;;;;3.03;100.00;103005.56;5045691;28;20037;-49
2022/01/22 07:25:57;;;;;;;4.88;2.50;;;;;;;3.09;100.00;103005.25;5043462;28;20478;-49
2022/01/22 07:28:22;;;;;;;5.03;2.08;;;;;;;3.13;100.00;103009.41;5038647;28;20035;-54
2022/01/22 07:30:48;;;;;;;2.80;2.15;;;;;;;3.13;100.00;103014.66;5041482;28;20376;-53
2022/01/22 07:33:15;;;;;;;2.28;1.83;;;;;;;3.12;100.00;103014.72;5044232;28;20102;-50
2022/01/22 07:35:41;;;;;;;4.82;1.52;;;;;;;3.11;100.00;103013.88;5038772;28;20025;-50
2022/01/22 07:38:08;;;;;;;8.68;2.15;;;;;;;3.15;100.00;103012.81;5043457;28;20039;-52
2022/01/22 07:40:34;;;;;;;6.45;2.08;;;;;;;3.12;100.00;103004.25;5041639;28;20033;-53
2022/01/22 07:42:59;;;;;;;6.00;2.75;;;;;;;3.16;100.00;102996.13;5043171;28;20048;-49
2022/01/22 07:45:25;;;;;;;4.28;2.10;;;;;;;3.19;100.00;103000.38;5042787;28;20025;-55
2022/01/22 07:47:50;;;;;;;5.18;2.60;;;;;;;3.11;100.00;102990.28;5038105;28;20112;-55
2022/01/22 07:50:16;;;;;;;1.70;1.60;;;;;;;3.09;100.00;102992.13;5036390;28;20451;-51
2022/01/22 07:52:41;;;;;;;2.65;1.65;;;;;;;3.13;100.00;103000.72;5039655;28;20363;-53
2022/01/22 07:55:07;;;;;;;6.55;3.00;;;;;;;3.08;100.00;102995.69;5047108;28;20034;-53
2022/01/22 07:57:33;;;;;;;4.80;2.30;;;;;;;3.07;100.00;102988.75;5054307;28;20029;-52
2022/01/22 07:59:58;;;;;;;5.30;2.97;;;;;;;3.06;100.00;102994.94;5052172;28;20107;-50
2022/01/22 08:02:24;;;;;;;3.13;2.17;;;;;;;3.07;100.00;102996.59;5045641;28;20554;-53
2022/01/22 08:04:49;;;;;;;3.10;2.15;;;;;;;3.15;100.00;102993.59;5046339;28;20510;-52
2022/01/22 08:07:15;;;;;;;6.03;4.05;;;;;;;3.12;100.00;102997.22;5041806;28;20045;-53
2022/01/22 08:09:41;;;;;;;2.58;1.60;;;;;;;3.13;100.00;102996.31;5042016;28;20076;-54
2022/01/22 08:12:07;;;;;;;2.20;1.63;;;;;;;3.10;100.00;102985.13;5035915;28;20067;-53
2022/01/22 08:14:32;;;;;;;2.80;2.45;;;;;;;3.08;100.00;102987.84;5030770;28;20029;-54
2022/01/22 08:16:58;;;;;;;3.95;3.55;;;;;;;3.10;100.00;102988.59;5038327;28;20465;-53
2022/01/22 08:19:23;;;;;;;2.42;1.73;;;;;;;3.13;100.00;102996.31;5037333;28;20115;-55
2022/01/22 08:21:49;;;;;;;2.72;2.03;;;;;;;3.15;100.00;102996.22;5036445;28;20124;-51
2022/01/22 08:24:15;;;;;;;2.88;2.40;;;;;;;3.15;100.00;102993.59;5041554;28;20034;-52
2022/01/22 08:27:05;;;;;;;2.72;2.10;;;;;;;3.14;100.00;102998.00;5040797;28;20250;-55
2022/01/22 08:29:26;;;;;;;3.15;2.72;;;;;;;3.23;100.00;102999.28;5037454;28;20043;-53
2022/01/22 08:32:04;;;;;;;2.00;1.63;;;;;;;3.26;100.00;103004.38;5036262;28;20395;-53
2022/01/22 08:37:14;;;;;;;2.95;2.58;;;;;;;3.36;100.00;103002.13;5030026;28;20048;-53
2022/01/22 08:39:39;;;;;;;5.10;2.75;;;;;;;3.37;100.00;103009.03;5037677;28;20028;-53
2022/01/22 08:42:06;;;;;;;3.17;2.63;;;;;;;3.36;100.00;102996.88;5039036;28;20025;-51
2022/01/22 08:44:31;;;;;;;4.60;2.08;;;;;;;3.37;100.00;102998.53;5036272;28;20033;-55
2022/01/22 08:46:57;;;;;;;3.55;2.33;;;;;;;3.36;100.00;102997.72;5040504;28;20477;-53
2022/01/22 08:49:22;;;;;;;2.53;2.33;;;;;;;3.34;100.00;102994.31;5022041;28;20113;-50
2022/01/22 08:51:48;;;;;;;3.50;2.35;;;;;;;3.35;100.00;103003.03;5042209;28;20120;-52
2022/01/22 08:54:13;;;;;;;5.10;2.35;;;;;;;3.36;100.00;103002.13;5033724;28;20033;-52
2022/01/22 08:56:40;;;;;;;5.55;2.60;;;;;;;3.42;100.00;102994.75;5038474;28;20116;-53
2022/01/22 08:59:07;;;;;;;4.85;2.40;;;;;;;3.46;100.00;103004.16;5038859;28;20040;-48
2022/01/22 09:01:32;;;;;;;8.65;4.22;;;;;;;3.48;100.00;103006.69;5043554;28;20428;-53
2022/01/22 09:03:58;;;;;;;7.22;3.20;;;;;;;3.47;100.00;103012.88;5039136;28;20039;-50
2022/01/22 09:06:23;;;;;;;2.90;2.30;;;;;;;3.46;100.00;103011.19;5036609;28;20103;-53
2022/01/22 09:08:59;;;;;;;3.65;2.70;;;;;;;3.47;100.00;103011.06;5032757;28;20060;-53
2022/01/22 09:11:24;;;;;;;3.72;2.75;;;;;;;3.50;100.00;103004.81;5036454;28;20025;-51
2022/01/22 09:13:49;;;;;;;2.72;2.05;;;;;;;3.52;100.00;103016.09;5036156;28;20029;-52
2022/01/22 09:16:15;;;;;;;2.72;2.40;;;;;;;3.56;100.00;103017.59;5032742;28;20052;-54
2022/01/22 09:18:40;;;;;;;2.63;2.42;;;;;;;3.60;100.00;103011.25;5029946;28;20071;-50
2022/01/22 09:21:06;;;;;;;4.90;2.17;;;;;;;3.64;100.00;103010.19;5034528;28;20148;-52
2022/01/22 09:23:33;;;;;;;3.88;2.42;;;;;;;3.69;100.00;103015.16;5032925;28;20109;-53
2022/01/22 09:25:59;;;;;;;2.20;1.98;;;;;;;3.72;100.00;103007.13;5037745;28;20044;-50
2022/01/22 09:28:26;;;;;;;2.20;2.10;;;;;;;3.74;100.00;103007.03;5035650;28;20033;-51
2022/01/22 09:30:51;;;;;;;4.07;2.85;;;;;;;3.74;100.00;103009.66;5035565;28;20108;-52
2022/01/22 09:33:17;;;;;;;3.38;2.33;;;;;;;3.77;100.00;103009.47;5033488;28;20039;-52
2022/01/22 09:35:42;;;;;;;3.20;2.40;;;;;;;3.80;100.00;103015.44;5036911;28;20092;-55
2022/01/22 09:38:08;;;;;;;3.45;3.15;;;;;;;3.83;100.00;103019.66;5044996;28;20028;-52
2022/01/22 09:40:34;;;;;;;5.30;3.53;;;;;;;3.83;100.00;103019.66;5040989;28;20148;-52
2022/01/22 09:42:59;;;;;;;3.70;3.10;;;;;;;3.85;100.00;103031.78;5039349;28;20021;-49
2022/01/22 09:45:30;;;;;;;5.20;3.25;;;;;;;3.89;100.00;103017.53;5036085;28;20021;-50
2022/01/22 09:47:58;;;;;;;4.63;3.33;;;;;;;3.89;100.00;103033.28;5037686;28;20028;-51
2022/01/22 09:50:25;;;;;;;5.53;3.22;;;;;;;3.91;100.00;103026.16;5039700;28;20029;-50
2022/01/22 09:52:51;;;;;;;8.25;4.28;;;;;;;3.93;100.00;103024.31;5043477;28;20040;-51
2022/01/22 09:55:17;;;;;;;4.65;3.85;;;;;;;3.95;100.00;103026.88;5032968;28;20037;-51
2022/01/22 09:57:44;;;;;;;8.68;2.95;;;;;;;3.98;100.00;103021.44;5038329;28;20082;-53
2022/01/22 10:00:13;;;;;;;3.63;2.53;;;;;;;4.02;100.00;103027.34;5042991;28;20565;-50
2022/01/22 10:02:44;;;;;;;7.65;3.92;;;;;;;4.01;100.00;103029.13;5042031;28;20037;-50
2022/01/22 10:05:28;;;;;;;;;;;;;;;4.02;100.00;103019.47;5041028;28;20036;-53
2022/01/22 10:08:15;;;;;;;4.43;3.70;;;;;;;4.06;100.00;103023.63;5042177;28;20352;-53
2022/01/22 10:10:40;;;;;;;5.78;3.65;;;;;;;4.09;100.00;103020.81;5036710;28;20040;-53
2022/01/22 10:13:05;;;;;;;8.48;5.20;;;;;;;4.07;100.00;103012.19;5038176;28;20025;-51
2022/01/22 10:15:34;;;;;;;6.90;5.28;;;;;;;4.07;100.00;103018.28;5038915;28;20028;-50
2022/01/22 10:18:00;;;;;;;6.60;3.97;;;;;;;4.08;100.00;103021.75;5039379;28;20033;-53
2022/01/22 10:20:28;;;;;;;4.50;4.10;;;;;;;4.10;100.00;103025.97;5038816;28;20040;-49
2022/01/22 10:23:23;;;;;;;5.00;3.85;;;;;;;4.14;100.00;103030.13;5044049;28;20453;-51
2022/01/22 10:25:57;;;;;;;5.00;3.40;;;;;;;4.14;100.00;103037.16;5038228;28;20190;-55
2022/01/22 10:28:26;;;;;;;3.67;3.38;;;;;;;4.12;100.00;103042.50;5037532;28;20063;-53
2022/01/22 10:30:59;;;;;;;5.45;4.68;;;;;;;4.07;100.00;103025.31;5040629;28;20090;-56
2022/01/22 10:33:29;;;;;;;7.65;4.75;;;;;;;4.08;100.00;103021.75;5037195;28;20112;-53
2022/01/22 10:36:17;;;;;;;5.03;3.95;;;;;;;4.08;100.00;103025.25;5041975;28;20600;-53
2022/01/22 10:38:52;;;;;;;6.65;4.28;;;;;;;4.09;100.00;103031.31;5037885;28;20615;-53
2022/01/22 10:41:35;;;;;;;5.20;3.90;;;;;;;4.09;100.00;103024.28;5036966;28;20060;-50
2022/01/22 10:44:02;;;;;;;9.05;4.65;;;;;;;4.07;100.00;103020.91;5032523;28;20021;-52
2022/01/22 10:46:43;;;;;;;6.60;4.80;;;;;;;4.09;100.00;103016.41;5033484;28;20044;-48
2022/01/22 10:49:12;;;;;;;5.75;4.00;;;;;;;4.13;100.00;103017.06;5034538;28;20139;-51
2022/01/22 10:51:50;;;;;;;3.95;3.55;;;;;;;4.15;100.00;103023.09;5035516;28;20040;-52
2022/01/22 10:54:17;;;;;;;4.30;3.90;;;;;;;4.12;100.00;103018.88;5040040;28;20036;-53
2022/01/22 10:56:44;;;;;;;5.93;3.42;;;;;;;4.10;100.00;103019.88;5023523;28;20406;-52
2022/01/22 10:59:12;;;;;;;4.70;3.88;;;;;;;4.11;100.00;103030.31;5030248;28;20038;-52
2022/01/22 11:01:43;;;;;;;6.18;2.78;;;;;;;4.11;100.00;103030.31;5029400;28;20029;-56
2022/01/22 11:04:11;;;;;;;6.20;2.92;;;;;;;4.13;100.00;103030.19;5034331;28;20033;-53
2022/01/22 11:06:39;;;;;;;4.78;4.38;;;;;;;4.09;100.00;103019.03;5033309;28;20106;-55
2022/01/22 11:09:07;;;;;;;11.10;3.78;;;;;;;4.11;100.00;103024.22;5038761;28;20029;-53
2022/01/22 11:11:37;;;;;;;4.97;3.50;;;;;;;4.06;100.00;103016.59;5037379;28;20025;-50
2022/01/22 11:14:04;;;;;;;5.55;3.30;;;;;;;4.03;100.00;103027.28;5037226;28;21471;-52
2022/01/22 11:16:30;;;;;;;5.68;3.72;;;;;;;3.99;100.00;103027.53;5035783;28;20376;-55
2022/01/22 11:18:56;;;;;;;5.80;4.70;;;;;;;3.98;100.00;103020.59;5038516;28;20033;-52
2022/01/22 11:21:23;;;;;;;6.15;4.82;;;;;;;4.03;100.00;103018.56;5036921;28;20474;-55
2022/01/22 11:23:48;;;;;;;4.97;3.17;;;;;;;4.05;100.00;103014.03;5032952;28;20021;-50
2022/01/22 11:26:15;;;;;;;6.43;4.03;;;;;;;4.08;100.00;103016.50;5038011;28;20060;-55
2022/01/22 11:28:44;;;;;;;6.03;4.03;;;;;;;4.07;100.00;103015.66;5029583;28;20476;-55
2022/01/22 11:31:10;;;;;;;5.80;3.95;;;;;;;4.04;100.00;103013.19;5027601;28;20043;-54
2022/01/22 11:33:40;;;;;;;3.38;3.08;;;;;;;4.09;100.00;103012.94;5036485;28;20029;-53
2022/01/22 11:36:53;;;;;;;7.20;3.25;;;;;;;4.14;100.00;103021.41;5043444;28;20452;-53
2022/01/22 11:39:23;;;;;;;3.55;2.92;;;;;;;4.12;100.00;103003.09;5029701;28;20179;-51
2022/01/22 11:41:57;;;;;;;6.25;4.35;;;;;;;4.17;100.00;103007.25;5035747;28;20414;-49
2022/01/22 11:44:32;;;;;;;5.78;4.10;;;;;;;4.19;100.00;103010.66;5036602;28;20079;-53
2022/01/22 11:47:10;;;;;;;4.47;3.28;;;;;;;4.18;100.00;103006.31;5040937;28;20036;-50
2022/01/22 11:49:37;;;;;;;8.98;4.78;;;;;;;4.17;100.00;103004.63;5018794;28;20031;-54
2022/01/22 11:52:08;;;;;;;6.15;4.10;;;;;;;4.16;100.00;103003.78;5039867;28;20033;-52
2022/01/22 11:54:53;;;;;;;4.63;3.58;;;;;;;4.15;100.00;103000.31;5040547;28;20033;-51
2022/01/22 11:57:19;;;;;;;6.38;3.78;;;;;;;4.14;100.00;103003.88;5043399;28;20025;-53
2022/01/22 11:59:46;;;;;;;12.45;3.40;;;;;;;4.15;100.00;103002.94;5027203;28;20480;-51
2022/01/22 12:02:13;;;;;;;6.15;3.33;;;;;;;4.19;100.00;103008.03;5041192;28;20537;-53
2022/01/22 12:04:39;;;;;;;3.15;2.85;;;;;;;4.22;100.00;103011.31;5047151;28;20060;-54
2022/01/22 12:07:04;;;;;;;4.30;2.65;;;;;;;4.24;100.00;103006.00;5040070;28;20068;-51
2022/01/22 12:09:40;;;;;;;9.95;3.58;;;;;;;4.21;100.00;102993.00;5036643;28;20061;-52
2022/01/22 12:15:39;;;;;;;4.55;3.47;;;;;;;4.25;100.00;103010.28;5041844;28;20157;-54
2022/01/22 12:18:16;;;;;;;5.15;2.25;;;;;;;4.23;100.00;103007.75;5032344;28;20040;-54
2022/01/22 12:23:41;;;;;;;2.15;1.95;;;;;;;4.22;100.00;103003.44;5025344;28;20044;-49
2022/01/22 12:26:07;;;;;;;2.28;2.08;;;;;;;4.26;100.00;103015.47;5032158;28;20386;-51
2022/01/22 12:28:35;;;;;;;5.28;2.85;;;;;;;4.28;100.00;103015.38;5027989;28;20029;-53
2022/01/22 12:31:19;;;;;;;3.45;2.55;;;;;;;4.28;100.00;103020.63;5033986;28;20035;-50
2022/01/22 12:33:47;;;;;;;3.55;2.60;;;;;;;4.31;100.00;103012.56;5022861;28;20044;-50
2022/01/22 12:36:22;;;;;;;7.55;3.25;;;;;;;4.31;100.00;102999.41;5030156;28;20029;-50
2022/01/22 12:39:07;;;;;;;4.35;3.42;;;;;;;4.31;100.00;102992.41;5032126;28;20132;-53
2022/01/22 12:44:08;;;;;;;7.03;3.05;;;;;;;4.31;100.00;102991.53;5038805;28;20033;-54
2022/01/22 12:46:35;;;;;;;5.20;2.95;;;;;;;4.30;100.00;102998.59;5034152;28;20478;-52
2022/01/22 12:49:02;;;;;;;4.05;2.83;;;;;;;4.34;100.00;102996.66;5032170;28;20529;-55
2022/01/22 12:51:28;;;;;;;6.75;2.05;;;;;;;4.37;100.00;102993.84;5035487;28;20048;-55
2022/01/22 12:53:53;;;;;;;7.68;3.08;;;;;;;4.38;100.00;102992.88;5034856;28;20045;-56
2022/01/22 12:59:04;;;;;;;4.53;2.60;;;;;;;4.42;100.00;102981.28;5034799;28;20033;-53
2022/01/22 13:01:31;;;;;;;4.28;2.50;;;;;;;4.44;100.00;102971.53;5032972;28;20033;-54
2022/01/22 13:03:58;;;;;;;6.03;3.00;;;;;;;4.50;100.00;102986.09;5035356;28;20036;-56
2022/01/22 13:06:35;;;;;;;7.50;2.97;;;;;;;4.52;100.00;102990.31;5034319;28;20030;-55
2022/01/22 13:09:01;;;;;;;6.70;2.38;;;;;;;4.54;100.00;102984.94;5035937;28;20124;-55
2022/01/22 13:11:28;;;;;;;5.18;3.10;;;;;;;4.58;100.00;102994.34;5035713;28;20039;-51
2022/01/22 13:13:56;;;;;;;4.03;2.20;;;;;;;4.62;100.00;102995.00;5035494;28;20386;-50
2022/01/22 13:16:22;;;;;;;6.20;2.38;;;;;;;4.64;100.00;102993.16;5021103;28;20440;-54
2022/01/22 13:18:58;;;;;;;4.28;2.15;;;;;;;4.64;100.00;102990.53;5032867;28;20071;-50
2022/01/22 13:21:31;;;;;;;7.18;3.97;;;;;;;4.62;100.00;102989.75;5031370;28;20017;-52